Time;durP1;ratioP1;P1;durP2;ratioP2;P2;SDS_P1;SDS_P2;PMS_P1;PMS_P2;Temp;Humidity;BMP_temperature;BMP_pressure;BME280_temperature;BME280_humidity;BME280_pressure;Samples;Min_cycle;Max_cycle;Signal;HPM_P1;HPM_P2
2024/03/17 00:01:45;;;;;;;1.50;0.90;;;;;;;8.55;100.00;98140.25;6302096;28;20209;-60
2024/03/17 00:04:46;;;;;;;0.90;0.80;;;;;;;8.38;100.00;98143.47;6302192;28;20314;-60
2024/03/17 00:07:48;;;;;;;1.07;0.83;;;;;;;8.40;100.00;98146.72;6299900;28;20205;-60
2024/03/17 00:10:56;;;;;;;0.87;0.83;;;;;;;8.26;100.00;98135.34;6297424;28;20193;-61
2024/03/17 00:13:57;;;;;;;1.20;0.90;;;;;;;8.25;100.00;98151.50;6304718;28;20579;-57
2024/03/17 00:16:58;;;;;;;1.00;0.90;;;;;;;8.24;100.00;98157.84;6299321;28;20276;-59
2024/03/17 00:20:04;;;;;;;1.20;1.10;;;;;;;8.27;100.00;98146.75;6301284;28;20210;-61
2024/03/17 00:23:09;;;;;;;1.30;1.20;;;;;;;8.40;100.00;98152.03;6303888;28;20186;-62
2024/03/17 00:26:10;;;;;;;1.13;1.03;;;;;;;8.40;100.00;98156.53;6301640;28;20250;-61
2024/03/17 00:29:11;;;;;;;1.07;0.97;;;;;;;8.14;100.00;98160.16;6297767;28;20281;-61
2024/03/17 00:32:12;;;;;;;1.43;1.13;;;;;;;7.97;100.00;98162.47;6288561;28;20197;-61
2024/03/17 00:35:20;;;;;;;1.80;1.43;;;;;;;7.82;100.00;98164.59;6303706;28;20218;-58
2024/03/17 00:38:21;;;;;;;1.73;1.00;;;;;;;7.76;100.00;98174.22;6301830;28;20190;-60
2024/03/17 00:41:23;;;;;;;1.07;0.97;;;;;;;7.65;100.00;98166.94;6297729;28;20198;-61
2024/03/17 00:44:24;;;;;;;0.80;0.80;;;;;;;7.60;100.00;98166.75;6296347;28;20226;-60
2024/03/17 00:47:25;;;;;;;1.60;1.50;;;;;;;7.65;100.00;98151.84;6288227;28;20201;-61
2024/03/17 00:50:26;;;;;;;1.30;1.20;;;;;;;7.68;100.00;98162.00;6301107;28;20239;-61
2024/03/17 00:53:28;;;;;;;1.40;1.30;;;;;;;7.75;100.00;98167.28;6301837;28;20184;-58
2024/03/17 00:56:30;;;;;;;1.40;1.30;;;;;;;7.71;100.00;98161.59;6299418;28;20190;-59
2024/03/17 00:59:31;;;;;;;1.60;1.37;;;;;;;7.78;100.00;98169.50;6297374;28;20190;-61
2024/03/17 01:02:32;;;;;;;1.30;1.20;;;;;;;7.86;100.00;98169.28;6305956;28;20204;-61
2024/03/17 01:05:33;;;;;;;1.17;1.07;;;;;;;7.87;100.00;98157.63;6300176;28;20209;-61
2024/03/17 01:08:34;;;;;;;3.63;1.40;;;;;;;7.97;100.00;98178.41;6296164;28;20302;-59
2024/03/17 01:11:35;;;;;;;1.50;1.40;;;;;;;7.97;100.00;98162.47;6296594;28;20189;-61
2024/03/17 01:14:36;;;;;;;1.97;1.67;;;;;;;8.07;100.00;98186.69;6282643;28;20209;-61
2024/03/17 01:17:37;;;;;;;1.30;1.20;;;;;;;8.27;99.22;98179.47;6277966;28;20193;-60
2024/03/17 01:20:39;;;;;;;1.47;1.37;;;;;;;8.33;97.67;98167.16;6305317;28;20199;-61
2024/03/17 01:23:40;;;;;;;1.40;1.10;;;;;;;8.32;99.11;98176.13;6302371;28;20192;-61
2024/03/17 01:26:41;;;;;;;3.20;1.10;;;;;;;8.29;99.38;98173.94;6302619;28;20646;-61
2024/03/17 01:29:45;;;;;;;1.37;1.17;;;;;;;8.51;97.05;98169.91;6301095;28;20206;-61
2024/03/17 01:32:46;;;;;;;1.13;1.07;;;;;;;8.37;99.72;98178.97;6298694;28;20281;-61
2024/03/17 01:35:48;;;;;;;1.00;0.80;;;;;;;8.27;100.00;98178.63;6302615;28;20197;-58
2024/03/17 01:38:50;;;;;;;1.30;0.90;;;;;;;8.26;99.92;98161.06;6305978;28;20197;-62
2024/03/17 01:41:51;;;;;;;1.37;1.00;;;;;;;8.47;98.77;98183.81;6300689;28;20210;-61
2024/03/17 01:44:53;;;;;;;1.10;1.00;;;;;;;8.48;97.17;98178.31;6303711;28;20704;-60
2024/03/17 01:47:57;;;;;;;2.77;0.97;;;;;;;8.34;99.39;98178.59;6299115;28;20704;-61
2024/03/17 01:50:58;;;;;;;1.30;1.03;;;;;;;8.37;99.06;98170.22;6300957;28;20296;-59
2024/03/17 01:54:00;;;;;;;1.00;0.97;;;;;;;8.28;100.00;98170.47;6302365;28;20660;-62
2024/03/17 01:57:01;;;;;;;1.27;1.07;;;;;;;8.24;100.00;98185.19;6302847;28;20217;-61
2024/03/17 02:00:03;;;;;;;2.10;1.00;;;;;;;8.23;100.00;98186.22;6303442;28;20198;-61
2024/03/17 02:03:09;;;;;;;1.53;1.40;;;;;;;8.15;98.70;98170.53;6301049;28;20226;-60
2024/03/17 02:06:10;;;;;;;1.57;1.40;;;;;;;8.38;96.93;98193.91;6304758;28;20649;-61
2024/03/17 02:09:12;;;;;;;2.70;1.40;;;;;;;8.38;96.02;98188.59;6285498;28;20198;-61
2024/03/17 02:12:14;;;;;;;2.53;2.33;;;;;;;8.41;88.98;98193.47;6300183;28;20178;-61
2024/03/17 02:15:15;;;;;;;3.10;2.67;;;;;;;8.42;86.31;98194.28;6299214;28;20273;-61
2024/03/17 02:18:16;;;;;;;3.40;2.77;;;;;;;8.34;86.14;98205.13;6300478;28;20191;-61
2024/03/17 02:21:17;;;;;;;3.30;3.00;;;;;;;8.19;84.85;98194.81;6298922;28;20205;-59
2024/03/17 02:24:18;;;;;;;3.57;3.27;;;;;;;8.12;85.19;98200.16;6295298;28;20284;-61
2024/03/17 02:27:19;;;;;;;4.07;3.53;;;;;;;7.96;85.09;98193.50;6302801;28;20217;-58
2024/03/17 02:30:20;;;;;;;4.00;2.90;;;;;;;7.84;84.98;98184.59;6301384;28;20202;-59
2024/03/17 02:33:22;;;;;;;3.50;3.20;;;;;;;7.66;82.47;98184.47;6306624;28;20188;-61
2024/03/17 02:36:23;;;;;;;3.03;2.83;;;;;;;7.77;79.36;98191.75;6304989;28;20226;-61
2024/03/17 02:39:57;;;;;;;4.37;3.07;;;;;;;7.77;80.11;98191.75;6286919;28;20221;-61
2024/03/17 02:42:52;;;;;;;3.23;2.93;;;;;;;7.59;76.53;98205.72;6298756;28;20214;-59
2024/03/17 02:45:53;;;;;;;3.10;2.70;;;;;;;7.48;78.62;98219.59;6300170;28;20213;-60
2024/03/17 02:48:54;;;;;;;4.73;2.80;;;;;;;7.45;76.21;98193.53;6305473;28;20181;-60
2024/03/17 02:51:55;;;;;;;3.37;2.77;;;;;;;7.48;74.02;98223.06;6300080;28;20197;-61
2024/03/17 02:54:56;;;;;;;5.43;3.03;;;;;;;7.48;73.65;98225.72;6302936;28;20194;-62
2024/03/17 02:57:57;;;;;;;2.67;2.40;;;;;;;7.52;73.63;98223.47;6299596;28;20186;-61
2024/03/17 03:00:58;;;;;;;3.13;2.67;;;;;;;7.41;73.86;98222.28;6301881;28;20246;-61
2024/03/17 03:03:59;;;;;;;3.97;2.60;;;;;;;7.24;73.87;98210.47;6303760;28;21086;-60
2024/03/17 03:07:00;;;;;;;4.00;3.00;;;;;;;7.22;74.61;98237.19;6299740;28;20194;-60
2024/03/17 03:10:01;;;;;;;3.80;2.70;;;;;;;7.20;73.49;98225.19;6312398;28;20181;-59
2024/03/17 03:13:03;;;;;;;4.00;3.07;;;;;;;7.17;73.37;98223.75;6304287;28;20197;-58
2024/03/17 03:16:06;;;;;;;4.83;3.30;;;;;;;7.27;73.35;98227.81;6305448;28;20654;-60
2024/03/17 03:19:08;;;;;;;4.60;2.97;;;;;;;7.12;73.91;98220.91;6308087;28;20193;-58
2024/03/17 03:22:09;;;;;;;5.00;3.30;;;;;;;6.93;74.88;98245.56;6293630;28;20263;-61
2024/03/17 03:25:09;;;;;;;4.33;3.13;;;;;;;6.73;74.07;98219.09;6306409;28;20619;-60
2024/03/17 03:28:11;;;;;;;4.43;3.70;;;;;;;6.85;73.70;98251.91;6309905;28;20181;-59
2024/03/17 03:31:15;;;;;;;7.27;3.53;;;;;;;6.80;75.01;98257.00;6309858;28;20190;-61
2024/03/17 03:34:16;;;;;;;4.20;3.10;;;;;;;6.84;74.73;98262.69;6301059;28;20198;-61
2024/03/17 03:37:17;;;;;;;4.77;3.43;;;;;;;6.87;72.70;98262.28;6302278;28;20206;-60
2024/03/17 03:40:18;;;;;;;4.50;3.20;;;;;;;6.82;73.15;98260.25;6306957;28;20889;-62
2024/03/17 03:43:19;;;;;;;4.73;3.27;;;;;;;6.81;72.54;98258.63;6303384;28;20326;-60
2024/03/17 03:46:20;;;;;;;6.20;3.37;;;;;;;6.71;72.60;98274.09;6303199;28;20219;-60
2024/03/17 03:49:21;;;;;;;4.73;3.70;;;;;;;6.66;71.96;98277.34;6304144;28;20237;-56
2024/03/17 03:52:22;;;;;;;4.30;3.80;;;;;;;6.51;73.57;98270.63;6313768;28;20279;-62
2024/03/17 03:55:24;;;;;;;6.90;3.67;;;;;;;6.58;73.85;98269.59;6303956;28;20306;-62
2024/03/17 03:58:25;;;;;;;4.10;3.70;;;;;;;6.70;72.80;98270.63;6304380;28;20223;-62
2024/03/17 04:01:26;;;;;;;3.63;3.30;;;;;;;6.55;74.80;98272.66;6304940;28;20217;-62
2024/03/17 04:04:27;;;;;;;6.90;3.73;;;;;;;6.59;71.98;98267.75;6288097;28;20201;-60
2024/03/17 04:07:29;;;;;;;4.87;4.00;;;;;;;6.41;74.31;98269.16;6303516;28;20186;-61
2024/03/17 04:10:30;;;;;;;6.23;4.67;;;;;;;6.39;73.75;98281.75;6306601;28;20186;-61
2024/03/17 04:13:33;;;;;;;5.77;3.97;;;;;;;6.12;75.39;98259.72;6301473;28;20681;-62
2024/03/17 04:16:34;;;;;;;6.17;4.00;;;;;;;6.29;75.54;98291.91;6302342;28;20189;-61
2024/03/17 04:19:35;;;;;;;7.60;4.13;;;;;;;6.18;75.20;98277.44;6300325;28;20200;-62
2024/03/17 04:22:36;;;;;;;6.73;4.43;;;;;;;6.10;76.45;98288.19;6306741;28;20208;-63
2024/03/17 04:25:39;;;;;;;5.67;3.90;;;;;;;6.25;77.62;98300.44;6306968;28;20566;-62
2024/03/17 04:28:40;;;;;;;5.10;4.33;;;;;;;6.19;76.20;98294.13;6301303;28;20194;-63
2024/03/17 04:31:42;;;;;;;6.27;4.27;;;;;;;6.21;76.72;98300.06;6302606;28;20185;-62
2024/03/17 04:34:46;;;;;;;6.43;4.13;;;;;;;6.03;76.89;98292.66;6306233;28;20561;-63
2024/03/17 04:37:48;;;;;;;8.13;4.00;;;;;;;6.17;76.43;98306.75;6301217;28;20218;-62
2024/03/17 04:40:49;;;;;;;6.23;4.63;;;;;;;6.05;77.36;98306.47;6298928;28;20215;-62
2024/03/17 04:43:50;;;;;;;6.77;4.23;;;;;;;6.00;77.46;98318.66;6287754;28;20271;-62
2024/03/17 04:46:51;;;;;;;5.00;4.47;;;;;;;6.00;77.72;98313.38;6308124;28;20606;-63
2024/03/17 04:49:52;;;;;;;5.83;4.30;;;;;;;5.93;76.74;98311.53;6304430;28;20191;-63
2024/03/17 04:52:53;;;;;;;8.13;4.57;;;;;;;5.91;77.39;98317.97;6300956;28;20669;-63
2024/03/17 04:56:04;;;;;;;5.87;4.13;;;;;;;5.97;76.42;98316.44;6304520;28;20184;-62
2024/03/17 04:59:05;;;;;;;6.20;3.80;;;;;;;5.99;77.01;98303.81;6302927;28;20207;-61
2024/03/17 05:02:07;;;;;;;7.00;4.50;;;;;;;6.08;76.14;98311.38;6291962;28;20768;-61
2024/03/17 05:05:08;;;;;;;6.63;4.20;;;;;;;5.90;77.53;98311.88;6301411;28;20603;-59
2024/03/17 05:08:11;;;;;;;5.70;3.50;;;;;;;6.00;74.71;98305.44;6287453;28;20227;-62
2024/03/17 05:11:14;;;;;;;5.23;4.00;;;;;;;5.92;74.99;98309.09;6296891;28;20187;-60
2024/03/17 05:14:15;;;;;;;5.80;3.97;;;;;;;5.83;75.71;98313.69;6299422;28;20245;-61
2024/03/17 05:17:16;;;;;;;4.87;4.00;;;;;;;5.91;74.32;98326.78;6303395;28;20616;-56
2024/03/17 05:20:17;;;;;;;4.93;3.37;;;;;;;5.78;74.67;98333.78;6282553;28;20222;-58
2024/03/17 05:23:19;;;;;;;7.03;4.13;;;;;;;5.80;75.56;98340.50;6285640;28;20316;-62
2024/03/17 05:26:20;;;;;;;3.90;3.50;;;;;;;5.95;73.60;98333.28;6304233;28;20555;-61
2024/03/17 05:29:22;;;;;;;4.07;3.13;;;;;;;5.86;74.52;98336.25;6301693;28;20199;-62
2024/03/17 05:32:23;;;;;;;5.47;3.40;;;;;;;5.97;74.61;98342.88;6298700;28;20200;-61
2024/03/17 05:35:25;;;;;;;4.27;3.50;;;;;;;5.90;73.19;98346.25;6306925;28;20204;-61
2024/03/17 05:38:27;;;;;;;4.97;3.07;;;;;;;5.74;72.91;98332.53;6304893;28;20188;-61
2024/03/17 05:41:28;;;;;;;4.93;3.03;;;;;;;5.85;73.18;98345.22;6296995;28;20216;-60
2024/03/17 05:44:33;;;;;;;5.73;2.70;;;;;;;5.90;72.18;98345.44;6300686;28;20230;-59
2024/03/17 05:47:34;;;;;;;5.80;2.70;;;;;;;5.82;71.23;98342.97;6301223;28;20219;-62
2024/03/17 05:50:36;;;;;;;5.40;2.80;;;;;;;5.90;71.83;98353.38;6305572;28;20274;-63
2024/03/17 05:53:41;;;;;;;5.87;3.03;;;;;;;5.79;72.45;98332.78;6299876;28;20230;-62
2024/03/17 05:56:42;;;;;;;5.83;2.83;;;;;;;5.78;71.54;98326.66;6299376;28;20193;-61
2024/03/17 05:59:43;;;;;;;2.83;2.60;;;;;;;5.85;71.42;98343.38;6299283;28;20624;-62
2024/03/17 06:02:46;;;;;;;6.07;2.90;;;;;;;5.92;71.46;98359.31;6302980;28;20744;-62
2024/03/17 06:05:48;;;;;;;6.93;2.63;;;;;;;6.01;71.55;98365.25;6301454;28;20201;-63
2024/03/17 06:08:49;;;;;;;6.27;2.87;;;;;;;5.94;72.16;98362.59;6302352;28;20204;-63
2024/03/17 06:11:50;;;;;;;4.83;2.77;;;;;;;5.95;69.97;98356.28;6303900;28;20184;-63
2024/03/17 06:14:51;;;;;;;4.73;2.30;;;;;;;5.93;70.43;98353.03;6304762;28;20188;-62
2024/03/17 06:17:53;;;;;;;4.70;2.40;;;;;;;5.99;70.59;98360.16;6299934;28;20196;-62
2024/03/17 06:21:00;;;;;;;6.00;2.67;;;;;;;6.06;70.01;98352.25;6299059;28;20201;-62
2024/03/17 06:24:02;;;;;;;3.47;2.50;;;;;;;5.91;70.02;98349.72;6303033;28;20184;-62
2024/03/17 06:27:03;;;;;;;3.53;2.10;;;;;;;6.18;71.64;98348.88;6306334;28;20219;-64
2024/03/17 06:30:04;;;;;;;4.97;2.43;;;;;;;6.07;70.12;98338.03;6298305;28;20196;-63
2024/03/17 06:33:05;;;;;;;5.00;2.33;;;;;;;6.02;70.71;98353.69;6305055;28;20180;-65
2024/03/17 06:36:06;;;;;;;4.27;2.43;;;;;;;6.14;69.41;98357.41;6300073;28;20196;-65
2024/03/17 06:39:08;;;;;;;5.70;2.50;;;;;;;6.23;71.05;98363.34;6295681;28;20203;-64
2024/03/17 06:42:09;;;;;;;2.67;1.90;;;;;;;6.25;69.45;98361.31;6301125;28;20765;-60
2024/03/17 06:45:10;;;;;;;7.80;2.73;;;;;;;6.38;70.21;98371.94;6294963;28;20621;-64
2024/03/17 06:48:11;;;;;;;7.90;2.37;;;;;;;6.56;66.72;98369.56;6312905;28;20204;-60
2024/03/17 06:51:12;;;;;;;3.60;2.20;;;;;;;6.60;67.49;98376.13;6317191;28;20203;-63
2024/03/17 06:54:13;;;;;;;5.37;2.57;;;;;;;6.61;66.83;98372.44;6305527;28;20209;-63
2024/03/17 06:57:14;;;;;;;5.07;2.60;;;;;;;6.62;65.86;98373.25;6304280;28;20280;-63
2024/03/17 07:00:16;;;;;;;3.27;2.40;;;;;;;6.61;67.06;98366.34;6285586;28;20646;-62
2024/03/17 07:03:17;;;;;;;5.40;3.43;;;;;;;6.51;69.36;98377.31;6302634;28;20195;-62
2024/03/17 07:06:18;;;;;;;6.27;2.80;;;;;;;6.54;67.52;98373.41;6312467;28;20197;-63
2024/03/17 07:09:19;;;;;;;5.07;2.53;;;;;;;6.62;69.10;98370.59;6304340;28;20506;-63
2024/03/17 07:12:20;;;;;;;3.87;2.20;;;;;;;6.51;69.39;98389.72;6306905;28;20192;-63
2024/03/17 07:15:21;;;;;;;6.57;2.40;;;;;;;6.40;70.95;98383.13;6299752;28;20192;-58
2024/03/17 07:18:22;;;;;;;3.87;2.53;;;;;;;6.64;69.90;98389.75;6301009;28;20192;-57
2024/03/17 07:21:23;;;;;;;4.07;2.00;;;;;;;6.75;67.78;98391.84;6299622;28;20251;-62
2024/03/17 07:24:24;;;;;;;4.77;2.33;;;;;;;6.84;68.94;98392.44;6303352;28;20193;-60
2024/03/17 07:27:26;;;;;;;5.73;2.63;;;;;;;6.76;67.62;98392.66;6279655;28;20253;-61
2024/03/17 07:30:28;;;;;;;4.93;2.40;;;;;;;6.78;70.73;98396.72;6299262;28;20182;-55
2024/03/17 07:33:29;;;;;;;4.07;2.80;;;;;;;7.04;66.64;98387.19;6300739;28;20676;-59
2024/03/17 07:36:30;;;;;;;5.87;2.20;;;;;;;6.81;67.12;98377.78;6318115;28;20196;-60
2024/03/17 07:39:35;;;;;;;4.43;2.90;;;;;;;7.15;65.88;98390.06;6294092;28;20423;-60
2024/03/17 07:42:36;;;;;;;8.90;3.23;;;;;;;7.25;66.09;98397.63;6292935;28;20243;-60
2024/03/17 07:45:37;;;;;;;7.10;3.17;;;;;;;7.21;66.84;98399.03;6290972;28;20261;-60
2024/03/17 07:48:43;;;;;;;4.43;3.00;;;;;;;7.33;67.38;98397.41;6300415;28;20178;-57
2024/03/17 07:51:44;;;;;;;3.47;2.30;;;;;;;7.34;67.05;98391.13;6314564;28;20183;-60
2024/03/17 07:54:46;;;;;;;3.57;2.57;;;;;;;7.21;65.89;98369.91;6297951;28;20198;-61
2024/03/17 07:57:47;;;;;;;6.23;2.70;;;;;;;7.55;65.63;98387.44;6298527;28;20743;-58
2024/03/17 08:00:48;;;;;;;4.27;2.27;;;;;;;7.40;65.34;98400.09;6295921;28;21593;-61
2024/03/17 08:03:53;;;;;;;3.30;2.30;;;;;;;7.55;65.13;98405.19;6298107;28;20224;-61
2024/03/17 08:06:56;;;;;;;4.23;2.77;;;;;;;7.49;67.50;98406.81;6299737;28;20194;-61
2024/03/17 08:09:57;;;;;;;5.07;2.80;;;;;;;7.39;65.99;98404.56;6291500;28;20202;-61
2024/03/17 08:12:58;;;;;;;4.13;2.73;;;;;;;7.47;65.00;98409.66;6299948;28;20204;-59
2024/03/17 08:16:02;;;;;;;4.03;2.30;;;;;;;7.30;65.89;98407.63;6298801;28;20195;-59
2024/03/17 08:19:03;;;;;;;3.97;2.57;;;;;;;7.25;65.08;98402.94;6303031;28;20190;-59
2024/03/17 08:22:04;;;;;;;4.93;2.67;;;;;;;7.15;64.71;98405.97;6298970;28;20212;-60
2024/03/17 08:25:06;;;;;;;6.00;2.60;;;;;;;7.11;65.27;98370.28;6293500;28;20197;-56
2024/03/17 08:28:07;;;;;;;5.17;2.50;;;;;;;7.29;66.40;98395.38;6297849;28;20207;-60
2024/03/17 08:31:08;;;;;;;3.50;2.17;;;;;;;7.46;65.74;98384.16;6297360;28;20226;-60
2024/03/17 08:34:09;;;;;;;4.73;2.47;;;;;;;7.66;64.96;98393.97;6297691;28;20744;-60
2024/03/17 08:37:10;;;;;;;2.83;2.50;;;;;;;7.64;66.04;98382.75;6298991;28;20187;-57
2024/03/17 08:40:12;;;;;;;3.83;2.80;;;;;;;7.80;64.28;98384.97;6298601;28;20196;-60
2024/03/17 08:43:13;;;;;;;4.83;2.40;;;;;;;7.69;63.96;98382.94;6297088;28;20667;-60
2024/03/17 08:46:14;;;;;;;3.50;2.57;;;;;;;7.66;64.92;98381.50;6290467;28;20267;-59
2024/03/17 08:49:18;;;;;;;3.73;2.47;;;;;;;7.69;64.98;98377.66;6291158;28;20186;-59
2024/03/17 08:52:20;;;;;;;3.60;2.63;;;;;;;7.77;63.36;98380.06;6289250;28;20198;-56
2024/03/17 08:55:21;;;;;;;3.23;2.30;;;;;;;7.84;65.33;98383.53;6283773;28;20658;-55
2024/03/17 08:58:23;;;;;;;4.40;2.60;;;;;;;7.81;65.84;98377.81;6286634;28;20283;-56
2024/03/17 09:01:24;;;;;;;3.20;2.53;;;;;;;7.72;65.31;98372.72;6283753;28;20213;-56
2024/03/17 09:04:25;;;;;;;4.40;2.80;;;;;;;7.89;63.75;98377.63;6289838;28;20206;-58
2024/03/17 09:07:26;;;;;;;4.43;2.77;;;;;;;8.02;64.03;98386.34;6287167;28;20194;-58
2024/03/17 09:10:27;;;;;;;6.23;3.33;;;;;;;8.06;64.77;98367.34;6288706;28;20236;-57
2024/03/17 09:13:28;;;;;;;4.57;2.90;;;;;;;8.15;63.28;98366.09;6289022;28;20242;-58
2024/03/17 09:16:30;;;;;;;4.17;2.57;;;;;;;8.31;63.96;98356.84;6266681;28;20708;-58
2024/03/17 09:19:33;;;;;;;3.70;2.60;;;;;;;8.52;62.43;98369.84;6296413;28;20236;-57
2024/03/17 09:22:34;;;;;;;3.40;2.47;;;;;;;8.32;62.16;98372.56;6286283;28;20841;-58
2024/03/17 09:25:35;;;;;;;3.33;2.37;;;;;;;8.19;60.99;98346.09;6291437;28;20181;-58
2024/03/17 09:28:37;;;;;;;4.10;2.30;;;;;;;8.41;61.98;98371.34;6281229;28;20673;-57
2024/03/17 09:31:39;;;;;;;5.03;2.27;;;;;;;8.58;60.17;98347.78;6286436;28;20815;-57
2024/03/17 09:34:40;;;;;;;4.83;2.53;;;;;;;8.47;60.42;98345.78;6284567;28;20556;-56
2024/03/17 09:37:41;;;;;;;2.90;2.40;;;;;;;8.24;61.61;98354.25;6291002;28;20228;-58
2024/03/17 09:40:47;;;;;;;5.23;2.97;;;;;;;8.64;62.17;98354.91;6281545;28;20652;-57
2024/03/17 09:43:49;;;;;;;4.20;2.50;;;;;;;8.95;58.86;98340.81;6284504;28;20234;-57
2024/03/17 09:46:50;;;;;;;3.47;1.90;;;;;;;8.99;58.97;98347.31;6290047;28;20194;-57
2024/03/17 09:49:51;;;;;;;3.20;2.50;;;;;;;9.02;58.29;98354.06;6288580;28;20271;-57
2024/03/17 09:52:53;;;;;;;5.70;2.40;;;;;;;8.55;60.71;98350.84;6278437;28;20217;-58
2024/03/17 09:56:00;;;;;;;2.43;2.10;;;;;;;8.33;61.75;98352.97;6281537;28;20290;-57
2024/03/17 09:59:03;;;;;;;3.90;2.20;;;;;;;8.47;61.80;98349.28;6281500;28;20198;-58
2024/03/17 10:02:16;;;;;;;4.70;2.60;;;;;;;8.46;61.66;98342.31;6281166;28;20252;-57
2024/03/17 10:05:22;;;;;;;3.07;2.63;;;;;;;8.63;62.98;98333.88;6264460;28;20203;-58
2024/03/17 10:08:24;;;;;;;3.60;2.37;;;;;;;8.65;62.62;98340.59;6264467;28;20199;-57
2024/03/17 10:11:33;;;;;;;3.20;2.40;;;;;;;8.65;60.00;98348.56;6281950;28;20193;-57
2024/03/17 10:14:34;;;;;;;4.73;2.33;;;;;;;8.64;61.71;98335.50;6266517;28;20214;-59
2024/03/17 10:17:36;;;;;;;5.07;2.47;;;;;;;8.88;62.24;98340.06;6283889;28;20719;-56
2024/03/17 10:20:37;;;;;;;3.37;2.70;;;;;;;8.64;60.50;98322.22;6278798;28;20260;-57
2024/03/17 10:23:38;;;;;;;3.87;2.13;;;;;;;8.92;60.01;98330.63;6286430;28;20197;-58
2024/03/17 10:26:51;;;;;;;4.47;2.27;;;;;;;9.04;58.69;98328.88;6278168;28;20210;-57
2024/03/17 10:29:52;;;;;;;4.07;2.40;;;;;;;9.25;58.38;98317.06;6282318;28;20210;-58
2024/03/17 10:32:55;;;;;;;2.30;2.07;;;;;;;9.12;59.11;98325.16;6286274;28;20218;-59
2024/03/17 10:36:01;;;;;;;2.67;2.17;;;;;;;9.28;58.63;98316.63;6285152;28;20191;-56
2024/03/17 10:39:02;;;;;;;2.90;1.80;;;;;;;9.02;57.69;98311.56;6284662;28;20195;-57
2024/03/17 10:42:06;;;;;;;2.37;2.00;;;;;;;9.14;57.34;98312.47;6279236;28;20264;-58
2024/03/17 10:45:09;;;;;;;3.00;2.57;;;;;;;9.17;57.80;98311.22;6293912;28;20222;-57
2024/03/17 10:48:19;;;;;;;5.90;2.30;;;;;;;9.16;59.10;98302.44;6287459;28;20186;-56
2024/03/17 10:51:20;;;;;;;5.17;2.27;;;;;;;9.44;56.42;98311.81;6283731;28;20194;-56
2024/03/17 10:54:31;;;;;;;2.97;2.47;;;;;;;9.26;58.51;98301.91;6281142;28;20191;-56
2024/03/17 10:57:35;;;;;;;2.87;1.97;;;;;;;9.51;59.38;98301.94;6284215;28;20175;-56
2024/03/17 11:00:37;;;;;;;2.53;2.10;;;;;;;9.38;57.74;98302.03;6282510;28;20205;-55
2024/03/17 11:03:39;;;;;;;2.67;2.00;;;;;;;9.47;56.54;98301.53;6282572;28;20206;-55
2024/03/17 11:06:41;;;;;;;3.23;2.13;;;;;;;9.26;55.72;98285.97;6282855;28;20199;-57
2024/03/17 11:09:44;;;;;;;2.57;1.90;;;;;;;9.55;56.17;98293.25;6286238;28;20737;-58
2024/03/17 11:12:47;;;;;;;6.27;2.00;;;;;;;9.59;55.19;98296.31;6297877;28;20211;-57
2024/03/17 11:15:48;;;;;;;3.53;2.00;;;;;;;9.44;55.56;98263.94;6291091;28;20237;-57
2024/03/17 11:18:49;;;;;;;2.60;2.17;;;;;;;9.33;55.38;98288.59;6288398;28;20320;-56
2024/03/17 11:21:50;;;;;;;3.73;1.90;;;;;;;9.33;56.78;98284.09;6286199;28;20206;-57
2024/03/17 11:24:55;;;;;;;2.63;1.90;;;;;;;9.35;58.56;98283.84;6285359;28;20814;-57
2024/03/17 11:27:57;;;;;;;2.13;1.90;;;;;;;9.52;55.25;98267.13;6285087;28;20195;-56
2024/03/17 11:31:06;;;;;;;2.60;1.97;;;;;;;9.59;59.90;98260.91;6285520;28;20195;-56
2024/03/17 11:34:31;;;;;;;2.97;1.70;;;;;;;9.74;56.36;98259.50;6294034;28;20194;-56
2024/03/17 11:37:43;;;;;;;3.13;1.77;;;;;;;9.68;56.30;98238.31;6305933;28;20202;-56
2024/03/17 11:40:44;;;;;;;2.97;1.97;;;;;;;9.77;56.85;98251.09;6292418;28;20678;-57
2024/03/17 11:43:45;;;;;;;5.17;2.00;;;;;;;10.04;55.85;98240.13;6298696;28;20748;-57
2024/03/17 11:46:52;;;;;;;2.40;1.97;;;;;;;10.22;54.22;98237.44;6296531;28;20185;-55
2024/03/17 11:49:54;;;;;;;3.60;2.00;;;;;;;10.11;54.60;98224.88;6287149;28;20235;-55
2024/03/17 11:52:58;;;;;;;2.00;1.80;;;;;;;10.32;54.74;98228.94;6302885;28;20199;-54
2024/03/17 11:56:03;;;;;;;2.03;1.73;;;;;;;10.21;56.05;98229.69;6297783;28;20907;-56
2024/03/17 11:59:09;;;;;;;2.33;1.93;;;;;;;10.18;57.38;98225.59;6306913;28;20722;-56
2024/03/17 12:02:18;;;;;;;3.30;2.20;;;;;;;10.24;55.15;98218.59;6302232;28;20204;-57
2024/03/17 12:05:20;;;;;;;4.37;1.97;;;;;;;10.49;53.42;98205.09;6297585;28;20945;-57
2024/03/17 12:08:22;;;;;;;3.03;1.90;;;;;;;10.38;53.70;98206.72;6292857;28;20296;-59
2024/03/17 12:11:23;;;;;;;1.90;1.60;;;;;;;10.40;57.08;98195.84;6305405;28;20186;-56
2024/03/17 12:14:28;;;;;;;2.57;1.87;;;;;;;10.65;51.68;98169.84;6303537;28;20300;-56
2024/03/17 12:17:29;;;;;;;3.47;1.77;;;;;;;10.83;51.70;98185.69;6304140;28;20189;-56
2024/03/17 12:20:30;;;;;;;2.60;1.97;;;;;;;10.86;51.87;98184.44;6306125;28;20707;-56
2024/03/17 12:23:31;;;;;;;2.07;1.67;;;;;;;11.02;50.83;98165.09;6304900;28;20575;-54
2024/03/17 12:26:34;;;;;;;2.07;1.53;;;;;;;11.13;50.30;98173.31;6306729;28;20668;-56
2024/03/17 12:29:40;;;;;;;2.03;1.60;;;;;;;11.13;54.76;98170.63;6303069;28;20201;-56
2024/03/17 12:32:41;;;;;;;2.40;1.70;;;;;;;11.10;54.05;98172.75;6297523;28;20178;-55
2024/03/17 12:35:43;;;;;;;2.63;1.87;;;;;;;11.22;51.74;98172.72;6305354;28;20829;-56
2024/03/17 12:38:44;;;;;;;1.90;1.70;;;;;;;11.00;51.23;98166.38;6311432;28;20186;-56
2024/03/17 12:42:00;;;;;;;1.63;1.37;;;;;;;10.95;52.46;98159.06;6305480;28;20215;-55
2024/03/17 12:45:03;;;;;;;2.27;1.50;;;;;;;11.10;50.94;98154.06;6302371;28;20702;-56
2024/03/17 12:48:11;;;;;;;2.30;1.60;;;;;;;11.26;52.04;98152.53;6301186;28;20729;-56
2024/03/17 12:51:15;;;;;;;2.10;1.40;;;;;;;11.38;51.30;98149.88;6314831;28;20186;-55
2024/03/17 12:54:20;;;;;;;2.13;1.50;;;;;;;11.66;50.55;98156.28;6301689;28;20185;-56
2024/03/17 13:00:41;;;;;;;2.40;1.53;;;;;;;11.17;50.17;98139.81;6300738;28;20197;-55
2024/03/17 13:03:44;;;;;;;1.57;1.43;;;;;;;11.31;50.63;98141.16;6302821;28;20188;-55
2024/03/17 13:06:45;;;;;;;2.93;1.50;;;;;;;11.18;51.50;98104.09;6306764;28;20204;-55
2024/03/17 13:09:46;;;;;;;1.73;1.40;;;;;;;11.51;50.44;98138.91;6301022;28;20182;-55
2024/03/17 13:12:57;;;;;;;2.23;1.70;;;;;;;11.32;50.14;98110.78;6304842;28;20235;-56
2024/03/17 13:15:58;;;;;;;1.80;1.50;;;;;;;11.52;49.04;98119.19;6305572;28;20189;-54
2024/03/17 13:19:00;;;;;;;3.27;1.47;;;;;;;11.54;48.65;98117.13;6300511;28;20193;-55
2024/03/17 13:22:01;;;;;;;1.83;1.30;;;;;;;11.75;48.55;98110.31;6283518;28;20304;-55
2024/03/17 13:25:02;;;;;;;2.67;1.60;;;;;;;11.50;49.29;98099.16;6302645;28;20653;-53
2024/03/17 13:28:06;;;;;;;2.17;1.70;;;;;;;11.43;48.77;98109.13;6309881;28;20677;-54
2024/03/17 13:31:10;;;;;;;2.23;1.60;;;;;;;11.09;51.32;98107.13;6299609;28;20216;-54
2024/03/17 13:34:11;;;;;;;3.33;1.63;;;;;;;11.24;49.67;98098.63;6304664;28;20186;-58
2024/03/17 13:37:12;;;;;;;2.37;1.90;;;;;;;11.44;50.49;98100.91;6297491;28;20284;-55
2024/03/17 13:40:18;;;;;;;2.57;1.30;;;;;;;11.46;51.69;98092.66;6298551;28;20204;-56
2024/03/17 13:43:19;;;;;;;3.43;1.67;;;;;;;11.30;50.16;98088.88;6297950;28;20201;-55
2024/03/17 13:46:20;;;;;;;2.27;1.40;;;;;;;11.17;51.73;98094.47;6299694;28;20189;-53
2024/03/17 13:49:22;;;;;;;2.90;1.80;;;;;;;11.32;50.69;98084.91;6304053;28;20197;-56
2024/03/17 13:52:23;;;;;;;2.40;1.70;;;;;;;11.24;50.19;98077.31;6298676;28;20243;-55
2024/03/17 13:55:25;;;;;;;3.47;1.80;;;;;;;11.19;51.29;98079.06;6304077;28;20288;-55
2024/03/17 13:58:26;;;;;;;1.73;1.63;;;;;;;11.15;51.93;98080.56;6303069;28;20623;-55
2024/03/17 14:01:27;;;;;;;2.40;1.47;;;;;;;11.21;51.08;98067.09;6302377;28;20202;-56
2024/03/17 14:04:28;;;;;;;2.50;1.30;;;;;;;11.47;49.34;98071.06;6307418;28;20194;-56
2024/03/17 14:07:31;;;;;;;1.17;0.90;;;;;;;11.57;49.92;98073.13;6314492;28;20223;-55
2024/03/17 14:10:32;;;;;;;2.47;1.40;;;;;;;11.52;49.91;98068.50;6311073;28;20243;-56
2024/03/17 14:13:33;;;;;;;1.83;1.33;;;;;;;11.50;49.38;98065.28;6306914;28;20211;-56
2024/03/17 14:16:34;;;;;;;2.33;1.40;;;;;;;11.61;49.62;98066.25;6303484;28;20193;-55
2024/03/17 14:19:35;;;;;;;2.20;1.50;;;;;;;11.45;50.92;98057.16;6309888;28;20194;-56
2024/03/17 14:22:38;;;;;;;3.17;1.70;;;;;;;11.42;49.75;98054.97;6303669;28;20205;-55
2024/03/17 14:25:39;;;;;;;1.70;1.27;;;;;;;11.41;50.34;98052.53;6309028;28;20189;-55
2024/03/17 14:28:41;;;;;;;2.23;1.50;;;;;;;11.22;51.20;98035.91;6306151;28;20675;-55